Time;durP1;ratioP1;P1;durP2;ratioP2;P2;SDS_P1;SDS_P2;PMS_P1;PMS_P2;Temp;Humidity;BMP_temperature;BMP_pressure;BME280_temperature;BME280_humidity;BME280_pressure;Samples;Min_cycle;Max_cycle;Signal;HPM_P1;HPM_P2
2022/01/31 00:00:17;;;;;;;18.65;5.55;;;;;;;3.76;68.56;99880.41;5087391;28;20103;-82
2022/01/31 00:02:44;;;;;;;21.52;4.78;;;;;;;3.87;67.99;99880.75;5075229;28;20032;-82
2022/01/31 00:05:10;;;;;;;10.73;4.30;;;;;;;3.99;67.19;99862.81;5087380;28;20489;-86
2022/01/31 00:07:35;;;;;;;17.77;5.05;;;;;;;3.86;68.32;99858.38;5088110;28;20531;-83
2022/01/31 00:10:06;;;;;;;10.93;4.93;;;;;;;3.89;67.99;99838.19;5085472;28;20112;-84
2022/01/31 00:12:36;;;;;;;10.88;5.70;;;;;;;3.87;67.74;99827.63;5082533;28;20069;-85
2022/01/31 00:15:03;;;;;;;16.40;5.95;;;;;;;3.82;68.56;99806.69;5081502;28;20082;-84
2022/01/31 00:17:29;;;;;;;17.00;4.70;;;;;;;3.82;68.45;99787.81;5082023;28;20038;-83
2022/01/31 00:19:54;;;;;;;16.75;5.30;;;;;;;3.85;68.16;99781.16;5089668;28;20019;-82
2022/01/31 00:22:19;;;;;;;11.00;5.25;;;;;;;3.93;68.17;99782.75;5088521;28;20498;-84
2022/01/31 00:24:45;;;;;;;8.90;3.33;;;;;;;3.92;68.17;99790.06;5093316;28;20020;-85
2022/01/31 00:27:10;;;;;;;12.70;3.65;;;;;;;3.84;68.49;99799.22;5090920;28;20020;-83
2022/01/31 00:29:36;;;;;;;13.38;5.53;;;;;;;3.71;68.57;99799.31;5086707;28;20064;-85
2022/01/31 00:32:02;;;;;;;20.80;6.40;;;;;;;3.88;68.45;99793.41;5088791;28;20024;-84
2022/01/31 00:34:27;;;;;;;14.57;4.47;;;;;;;3.92;68.17;99773.03;5086823;28;20035;-84
2022/01/31 00:36:54;;;;;;;12.70;3.55;;;;;;;3.89;68.87;99760.81;5088612;28;20483;-84
2022/01/31 00:39:19;;;;;;;10.10;3.97;;;;;;;3.86;68.38;99734.28;5087597;28;20034;-82
2022/01/31 00:41:45;;;;;;;7.95;2.88;;;;;;;3.83;69.05;99740.94;5091470;28;20453;-84
2022/01/31 00:47:20;;;;;;;11.63;4.32;;;;;;;3.88;68.81;99747.53;5060393;28;20039;-84
2022/01/31 00:50:02;;;;;;;11.95;4.40;;;;;;;3.90;68.90;99735.50;5093356;28;20028;-85
2022/01/31 00:52:28;;;;;;;11.25;4.38;;;;;;;4.05;68.40;99727.03;5091826;28;20020;-84
2022/01/31 00:54:53;;;;;;;14.27;5.20;;;;;;;4.00;68.71;99734.16;5092682;28;20072;-84
2022/01/31 00:57:18;;;;;;;13.20;4.82;;;;;;;4.02;69.02;99722.09;5093064;28;20032;-84
2022/01/31 00:59:43;;;;;;;15.90;4.55;;;;;;;3.82;69.25;99706.91;5092240;28;20699;-84
2022/01/31 01:02:09;;;;;;;8.00;3.85;;;;;;;3.89;69.27;99685.28;5093139;28;20031;-84
2022/01/31 01:04:34;;;;;;;11.80;4.35;;;;;;;3.82;69.88;99677.22;5090845;28;20035;-84
2022/01/31 01:06:59;;;;;;;20.05;4.80;;;;;;;3.93;69.11;99664.91;5093093;28;20136;-83
2022/01/31 01:09:25;;;;;;;19.70;4.50;;;;;;;3.85;69.61;99641.75;5091127;28;20028;-83
2022/01/31 01:11:50;;;;;;;11.02;4.57;;;;;;;3.85;69.85;99625.56;5092483;28;20036;-84
2022/01/31 01:14:15;;;;;;;14.75;4.43;;;;;;;4.03;69.42;99618.50;5092423;28;20389;-82
2022/01/31 01:16:40;;;;;;;10.13;4.05;;;;;;;3.94;70.07;99603.69;5092338;28;20020;-84
2022/01/31 01:19:06;;;;;;;10.35;4.35;;;;;;;4.01;69.89;99588.22;5092988;28;20058;-84
2022/01/31 01:21:31;;;;;;;12.23;4.95;;;;;;;3.95;69.65;99584.56;5107061;27;20466;-83
2022/01/31 01:23:57;;;;;;;15.23;3.63;;;;;;;3.81;70.51;99574.97;5092820;28;20024;-83
2022/01/31 01:26:22;;;;;;;19.70;4.85;;;;;;;3.93;69.76;99557.00;5088524;28;20027;-84
2022/01/31 01:28:48;;;;;;;12.10;4.40;;;;;;;3.96;69.62;99566.50;5093053;28;20027;-84
2022/01/31 01:31:14;;;;;;;16.10;5.32;;;;;;;3.80;70.69;99555.28;5090546;28;20536;-83
2022/01/31 01:33:41;;;;;;;18.63;5.60;;;;;;;3.89;70.12;99536.91;5091939;28;20035;-84
2022/01/31 01:36:07;;;;;;;20.13;6.25;;;;;;;4.05;69.71;99531.94;5090238;28;20028;-84
2022/01/31 01:38:34;;;;;;;11.05;4.25;;;;;;;3.77;70.26;99509.03;5088404;28;20924;-82
2022/01/31 01:41:00;;;;;;;14.15;4.57;;;;;;;3.81;70.77;99484.09;5089078;28;20032;-84
2022/01/31 01:43:27;;;;;;;11.43;4.25;;;;;;;3.76;70.92;99475.03;5088188;28;20028;-83
2022/01/31 01:45:54;;;;;;;13.98;4.95;;;;;;;3.67;70.88;99453.78;5074690;28;20502;-83
2022/01/31 01:48:20;;;;;;;16.25;4.30;;;;;;;3.77;71.02;99445.16;5090795;28;20028;-84
2022/01/31 01:50:46;;;;;;;10.90;4.47;;;;;;;3.72;70.61;99416.16;5105333;28;20038;-85
2022/01/31 01:53:14;;;;;;;11.20;3.75;;;;;;;3.58;71.47;99404.72;5111920;28;20441;-83
2022/01/31 01:55:39;;;;;;;16.33;5.05;;;;;;;3.47;72.15;99397.41;5111905;28;20027;-83
2022/01/31 01:58:13;;;;;;;17.50;4.72;;;;;;;3.45;72.28;99394.94;5113296;28;20019;-82
2022/01/31 02:00:52;;;;;;;9.05;3.70;;;;;;;3.55;71.58;99386.31;5111149;28;20368;-84
2022/01/31 02:03:20;;;;;;;14.57;4.60;;;;;;;3.50;71.85;99361.91;5094467;28;20030;-82
2022/01/31 02:05:46;;;;;;;10.68;4.05;;;;;;;3.59;71.94;99347.06;5111056;28;20032;-83
2022/01/31 02:08:13;;;;;;;14.05;4.65;;;;;;;3.73;70.83;99346.88;5112342;28;20035;-84
2022/01/31 02:10:39;;;;;;;7.43;3.85;;;;;;;3.76;71.34;99334.81;5112909;28;20032;-84
2022/01/31 02:13:16;;;;;;;15.60;4.00;;;;;;;3.65;71.49;99307.59;5111667;28;20026;-83
2022/01/31 02:15:49;;;;;;;12.68;4.57;;;;;;;3.58;72.28;99304.16;5112885;28;20136;-83
2022/01/31 02:18:16;;;;;;;9.32;3.75;;;;;;;3.68;71.55;99300.91;5110756;28;20016;-83
2022/01/31 02:20:42;;;;;;;13.68;4.82;;;;;;;3.71;71.56;99295.03;5100342;28;20024;-82
2022/01/31 02:23:13;;;;;;;12.20;4.90;;;;;;;3.66;72.84;99276.84;5091049;28;20479;-84
2022/01/31 02:26:03;;;;;;;10.98;3.78;;;;;;;3.55;74.30;99273.09;5091296;28;20107;-83
2022/01/31 02:28:31;;;;;;;10.10;3.92;;;;;;;3.54;75.68;99278.72;5091453;28;20028;-84
2022/01/31 02:30:57;;;;;;;12.25;5.47;;;;;;;3.52;76.13;99265.44;5089056;28;20044;-84
2022/01/31 02:33:23;;;;;;;11.77;4.47;;;;;;;3.49;76.85;99260.53;5092016;28;20108;-82
2022/01/31 02:35:51;;;;;;;11.20;4.10;;;;;;;3.34;78.03;99242.91;5072358;28;20463;-84
2022/01/31 02:38:17;;;;;;;12.25;5.65;;;;;;;3.18;79.14;99238.16;5073172;28;20550;-83
2022/01/31 02:40:43;;;;;;;13.45;4.35;;;;;;;3.29;79.60;99236.56;5096223;28;20043;-84
2022/01/31 02:43:08;;;;;;;14.27;5.90;;;;;;;3.28;80.15;99235.75;5090134;28;20024;-83
2022/01/31 02:45:34;;;;;;;15.98;4.38;;;;;;;3.38;80.37;99232.47;5111356;28;20054;-83
2022/01/31 02:48:01;;;;;;;11.13;4.43;;;;;;;3.32;80.93;99218.06;5091174;28;20028;-84
2022/01/31 02:50:27;;;;;;;11.20;4.50;;;;;;;3.21;82.13;99233.16;5101059;28;20490;-84
2022/01/31 02:53:30;;;;;;;9.20;4.32;;;;;;;3.14;81.96;99230.53;5071493;28;20151;-85
2022/01/31 02:55:45;;;;;;;7.15;3.20;;;;;;;3.11;83.05;99211.34;5086507;28;20089;-84
2022/01/31 02:58:11;;;;;;;9.43;4.75;;;;;;;3.22;82.22;99207.84;5090544;28;20028;-83
2022/01/31 03:00:38;;;;;;;18.73;6.72;;;;;;;3.00;83.48;99211.06;5088786;28;20083;-85
2022/01/31 03:03:04;;;;;;;9.00;4.05;;;;;;;2.99;83.10;99205.91;5091336;28;20024;-84
2022/01/31 03:05:29;;;;;;;9.00;3.80;;;;;;;2.89;83.35;99190.25;5089931;28;20093;-84
2022/01/31 03:07:54;;;;;;;12.48;4.57;;;;;;;2.70;83.76;99174.16;5090940;28;20111;-83
2022/01/31 03:10:20;;;;;;;8.88;3.30;;;;;;;2.60;84.45;99169.31;5071019;28;20016;-83
2022/01/31 03:12:45;;;;;;;13.50;4.47;;;;;;;2.61;84.85;99162.88;5089881;28;20043;-83
2022/01/31 03:15:10;;;;;;;11.88;4.60;;;;;;;2.68;84.75;99150.16;5086831;28;20028;-83
2022/01/31 03:17:36;;;;;;;8.55;3.60;;;;;;;2.54;85.34;99143.31;5089629;28;20020;-83
2022/01/31 03:20:01;;;;;;;10.13;4.38;;;;;;;2.48;85.14;99144.22;5090827;28;20477;-83
2022/01/31 03:22:27;;;;;;;13.35;5.60;;;;;;;2.49;85.14;99135.91;5089722;28;20062;-84
2022/01/31 03:24:52;;;;;;;18.70;5.03;;;;;;;2.50;85.29;99132.16;5090591;28;20101;-83
2022/01/31 03:27:51;;;;;;;13.85;5.22;;;;;;;2.49;84.85;99129.69;5089065;28;20028;-83
2022/01/31 03:30:19;;;;;;;11.18;4.40;;;;;;;2.52;84.83;99129.25;5046711;28;20751;-83
2022/01/31 03:32:46;;;;;;;11.02;3.22;;;;;;;2.54;85.60;99116.41;5102853;28;20143;-82
2022/01/31 03:35:13;;;;;;;7.70;3.17;;;;;;;2.51;85.14;99119.53;5068095;28;20086;-83
2022/01/31 03:37:38;;;;;;;7.82;3.22;;;;;;;2.61;85.26;99100.13;5070349;28;20027;-83
2022/01/31 03:40:05;;;;;;;6.80;3.15;;;;;;;2.55;85.23;99101.88;5068330;28;20020;-83
2022/01/31 03:42:30;;;;;;;9.95;3.35;;;;;;;2.59;86.14;99108.44;5086745;28;20082;-83
2022/01/31 03:44:55;;;;;;;9.00;3.45;;;;;;;2.70;85.28;99103.34;5088755;28;20020;-83
2022/01/31 03:47:21;;;;;;;9.43;3.13;;;;;;;2.64;86.33;99097.00;5090077;28;20031;-83
2022/01/31 03:49:48;;;;;;;7.88;3.97;;;;;;;2.75;85.41;99085.44;5084672;28;20117;-83
2022/01/31 03:52:13;;;;;;;3.72;2.05;;;;;;;2.91;84.92;99073.19;5049783;28;20693;-84
2022/01/31 03:54:39;;;;;;;4.53;2.58;;;;;;;2.95;84.12;99064.66;5069682;28;20032;-83
2022/01/31 03:57:04;;;;;;;4.90;2.45;;;;;;;3.32;83.68;99055.56;5067990;28;20095;-84
2022/01/31 03:59:29;;;;;;;6.43;2.35;;;;;;;2.97;84.67;99047.22;5069831;28;20032;-83
2022/01/31 04:01:55;;;;;;;6.05;2.33;;;;;;;2.63;85.71;99034.28;5050189;28;20476;-84
2022/01/31 04:04:20;;;;;;;10.93;2.67;;;;;;;2.52;87.65;99038.56;5070029;28;20060;-84
2022/01/31 04:06:46;;;;;;;5.47;2.97;;;;;;;2.84;86.62;99024.03;5068860;28;20039;-83
2022/01/31 04:09:11;;;;;;;5.50;2.80;;;;;;;2.76;87.40;99008.19;5050846;28;20027;-84
2022/01/31 04:11:36;;;;;;;8.17;3.07;;;;;;;2.75;87.64;99012.75;5051581;28;20487;-84
2022/01/31 04:14:02;;;;;;;3.40;1.55;;;;;;;2.85;88.13;99006.81;5067478;28;20260;-84
2022/01/31 04:16:27;;;;;;;16.13;2.80;;;;;;;3.12;87.06;98998.28;5069893;28;20330;-83
2022/01/31 04:18:52;;;;;;;8.77;2.70;;;;;;;3.27;87.19;99000.50;5068215;28;20518;-83
2022/01/31 04:21:18;;;;;;;6.40;2.65;;;;;;;3.26;87.05;98990.78;5051598;28;20028;-83
2022/01/31 04:23:43;;;;;;;5.28;2.13;;;;;;;3.47;87.35;98993.09;5067760;28;20480;-83
2022/01/31 04:26:13;;;;;;;6.30;2.90;;;;;;;3.59;86.56;98991.22;5069243;28;20033;-83
2022/01/31 04:28:47;;;;;;;7.28;2.78;;;;;;;3.61;87.00;99012.53;5069234;28;20032;-83
2022/01/31 04:33:46;;;;;;;4.45;1.92;;;;;;;3.77;87.21;98981.31;5069414;28;20039;-84
2022/01/31 04:36:14;;;;;;;5.43;2.13;;;;;;;3.74;87.43;98987.19;5066816;28;20036;-83
2022/01/31 04:38:40;;;;;;;10.18;2.88;;;;;;;3.68;89.27;98998.94;5069310;28;20032;-84
2022/01/31 04:41:05;;;;;;;6.30;2.28;;;;;;;3.73;87.74;98980.97;5077559;28;20029;-84
2022/01/31 04:43:32;;;;;;;4.70;2.25;;;;;;;3.72;88.92;98989.31;5088490;28;20016;-84
2022/01/31 04:46:00;;;;;;;9.80;3.05;;;;;;;3.64;88.94;98981.59;5088771;28;20718;-83
2022/01/31 04:48:25;;;;;;;8.05;3.65;;;;;;;3.96;87.02;98978.44;5088179;28;20024;-83
2022/01/31 04:50:51;;;;;;;6.13;2.70;;;;;;;3.93;88.21;98989.69;5071021;28;20031;-84
2022/01/31 04:53:16;;;;;;;8.57;2.85;;;;;;;4.00;89.24;98982.31;5087782;28;20028;-84
2022/01/31 04:55:41;;;;;;;9.82;5.10;;;;;;;3.78;89.74;98980.28;5089038;28;20016;-84
2022/01/31 04:58:07;;;;;;;13.02;4.32;;;;;;;3.65;90.54;98972.44;5087453;28;20060;-84
2022/01/31 05:00:33;;;;;;;11.45;5.10;;;;;;;3.53;91.24;98972.47;5088286;28;20051;-83
2022/01/31 05:02:59;;;;;;;15.77;5.03;;;;;;;4.10;89.00;98962.78;5088045;28;20078;-85
2022/01/31 05:05:24;;;;;;;15.63;6.50;;;;;;;3.87;90.95;98961.00;5088488;28;20020;-83
2022/01/31 05:07:53;;;;;;;9.25;4.78;;;;;;;4.00;90.29;98958.03;5089499;28;20070;-85
2022/01/31 05:10:18;;;;;;;14.23;6.40;;;;;;;4.09;90.03;98970.06;5089966;28;20021;-84
2022/01/31 05:12:43;;;;;;;14.48;6.90;;;;;;;4.19;89.80;98949.75;5071611;28;20038;-82
2022/01/31 05:15:09;;;;;;;12.02;6.20;;;;;;;4.00;91.09;98941.03;5091091;28;20050;-83
2022/01/31 05:17:34;;;;;;;10.25;5.90;;;;;;;3.98;91.40;98946.66;5090534;28;20071;-84
2022/01/31 05:20:00;;;;;;;13.05;6.43;;;;;;;4.07;90.98;98947.91;5081055;28;20089;-84
2022/01/31 05:22:25;;;;;;;12.52;7.25;;;;;;;3.97;92.02;98947.72;5068595;28;20414;-84
2022/01/31 05:24:50;;;;;;;14.10;6.53;;;;;;;3.89;91.33;98938.13;5068429;28;20023;-83
2022/01/31 05:30:00;;;;;;;14.65;6.78;;;;;;;4.12;91.05;98933.69;5066477;28;20067;-83
2022/01/31 05:32:25;;;;;;;11.25;5.53;;;;;;;4.21;90.67;98923.31;5049027;28;20471;-84
2022/01/31 05:34:51;;;;;;;14.73;6.05;;;;;;;4.16;91.00;98923.22;5084036;28;20025;-82
2022/01/31 05:37:16;;;;;;;13.95;5.97;;;;;;;4.34;90.00;98919.50;5066907;28;20573;-83
2022/01/31 05:39:43;;;;;;;10.13;4.28;;;;;;;4.27;89.83;98925.03;5083760;28;20020;-81
2022/01/31 05:42:08;;;;;;;14.98;5.63;;;;;;;4.15;89.88;98905.41;5068080;28;20042;-84
2022/01/31 05:44:34;;;;;;;13.25;5.13;;;;;;;4.36;89.78;98913.84;5067967;28;20029;-84
2022/01/31 05:47:00;;;;;;;11.35;5.07;;;;;;;4.50;89.31;98915.16;5068871;28;20151;-85
2022/01/31 05:49:26;;;;;;;10.35;4.63;;;;;;;4.43;88.94;98904.50;5068307;28;20055;-84
2022/01/31 05:51:57;;;;;;;14.00;5.50;;;;;;;4.35;89.27;98909.53;5088434;28;20060;-84
2022/01/31 05:54:23;;;;;;;11.15;3.92;;;;;;;4.50;88.57;98898.97;5086674;28;20024;-84
2022/01/31 05:56:50;;;;;;;23.15;4.57;;;;;;;4.06;89.72;98897.72;5087845;28;20028;-85
2022/01/31 05:59:18;;;;;;;11.52;5.90;;;;;;;4.27;89.70;98897.25;5087672;28;20032;-83
2022/01/31 06:01:43;;;;;;;18.60;7.05;;;;;;;4.09;90.56;98899.91;5087038;28;20487;-83
2022/01/31 06:04:09;;;;;;;19.27;6.93;;;;;;;4.22;90.35;98894.44;5088246;28;20065;-84
2022/01/31 06:06:35;;;;;;;21.25;7.07;;;;;;;4.20;91.84;98876.63;5086208;28;20479;-84
2022/01/31 06:09:00;;;;;;;10.07;4.35;;;;;;;3.90;91.91;98866.97;5087953;28;20055;-83
2022/01/31 06:11:26;;;;;;;12.18;5.68;;;;;;;4.25;90.50;98862.38;5086196;28;20020;-83
2022/01/31 06:13:54;;;;;;;13.20;4.22;;;;;;;4.31;91.15;98869.50;5086834;28;20075;-84
2022/01/31 06:16:20;;;;;;;13.30;5.68;;;;;;;4.09;91.85;98886.44;5087489;28;20431;-83
2022/01/31 06:18:45;;;;;;;11.65;5.63;;;;;;;4.60;89.98;98878.56;5087148;28;20052;-84
2022/01/31 06:21:13;;;;;;;15.10;7.00;;;;;;;4.36;92.20;98884.16;5069860;28;20294;-83
2022/01/31 06:23:40;;;;;;;20.92;8.15;;;;;;;4.46;90.99;98860.03;5066256;28;20668;-83
2022/01/31 06:26:05;;;;;;;11.45;5.30;;;;;;;4.67;89.61;98863.03;5066980;28;20063;-84
2022/01/31 06:28:30;;;;;;;16.67;5.82;;;;;;;4.64;89.87;98863.53;5065798;28;20059;-83
2022/01/31 06:30:56;;;;;;;18.70;7.13;;;;;;;4.44;90.33;98871.06;5066992;28;20067;-84
2022/01/31 06:33:21;;;;;;;12.55;6.53;;;;;;;4.59;90.23;98855.34;5066410;28;20029;-84
2022/01/31 06:35:47;;;;;;;16.42;5.88;;;;;;;4.75;89.53;98861.78;5066024;28;20079;-84
2022/01/31 06:38:13;;;;;;;10.85;5.53;;;;;;;4.13;90.80;98848.97;5066214;28;20508;-84
2022/01/31 06:40:39;;;;;;;15.85;5.28;;;;;;;4.41;91.45;98843.75;5071158;28;20047;-84
2022/01/31 06:43:05;;;;;;;28.60;5.57;;;;;;;4.15;91.97;98860.34;5081837;28;20046;-84
2022/01/31 06:45:30;;;;;;;17.95;5.22;;;;;;;4.15;92.46;98848.75;5066576;28;20456;-84
2022/01/31 06:47:56;;;;;;;11.77;5.60;;;;;;;4.29;91.82;98851.94;5067591;28;20067;-83
2022/01/31 06:50:21;;;;;;;12.18;5.40;;;;;;;4.21;92.12;98845.06;5065212;28;20375;-85
2022/01/31 06:52:50;;;;;;;14.82;4.95;;;;;;;4.71;90.13;98839.88;5066699;28;20332;-84
2022/01/31 06:55:19;;;;;;;15.57;4.90;;;;;;;4.60;90.76;98836.19;5065406;28;20827;-84
2022/01/31 06:57:45;;;;;;;16.88;5.43;;;;;;;4.61;90.45;98839.72;5064679;28;20043;-84
2022/01/31 07:00:12;;;;;;;12.65;4.95;;;;;;;4.61;89.21;98840.56;5059569;28;20027;-84
2022/01/31 07:02:38;;;;;;;18.42;5.07;;;;;;;4.16;91.82;98831.50;5064996;28;20036;-83
2022/01/31 07:05:04;;;;;;;21.20;4.80;;;;;;;4.07;91.50;98841.88;5066320;28;20028;-85
2022/01/31 07:07:30;;;;;;;19.00;4.68;;;;;;;4.32;90.57;98833.38;5046947;28;20461;-84
2022/01/31 07:09:56;;;;;;;9.68;3.85;;;;;;;4.12;90.13;98819.56;5066702;28;20021;-85
2022/01/31 07:12:31;;;;;;;24.10;4.43;;;;;;;4.12;90.98;98849.22;5065593;28;20052;-83
2022/01/31 07:14:57;;;;;;;6.55;2.08;;;;;;;3.87;90.33;98858.50;5065012;28;20039;-84
2022/01/31 07:17:22;;;;;;;7.85;1.95;;;;;;;3.34;92.29;98859.44;5073498;28;20024;-82
2022/01/31 07:19:47;;;;;;;10.10;3.38;;;;;;;3.20;92.17;98859.72;5079445;28;20342;-83
2022/01/31 07:22:14;;;;;;;5.72;1.42;;;;;;;3.15;92.54;98875.78;5085460;28;20024;-83
2022/01/31 07:27:06;;;;;;;4.03;2.30;;;;;;;3.07;92.73;98865.38;5085198;28;20043;-84
2022/01/31 07:29:31;;;;;;;7.22;2.50;;;;;;;2.82;93.65;98866.44;5083484;28;20522;-83
2022/01/31 07:31:58;;;;;;;6.25;2.25;;;;;;;3.18;92.37;98885.25;5084901;28;20070;-84
2022/01/31 07:34:24;;;;;;;5.00;2.13;;;;;;;3.41;93.24;98864.69;5085864;28;20052;-84
2022/01/31 07:36:49;;;;;;;5.72;2.05;;;;;;;3.07;92.65;98860.78;5084605;28;20028;-84
2022/01/31 07:39:16;;;;;;;4.80;1.73;;;;;;;3.37;93.03;98869.75;5086432;28;20356;-84
2022/01/31 07:41:42;;;;;;;12.60;2.97;;;;;;;3.50;91.27;98865.94;5084591;28;20062;-84
2022/01/31 07:44:08;;;;;;;4.95;1.70;;;;;;;3.30;92.05;98867.19;5086284;28;20075;-82
2022/01/31 07:46:33;;;;;;;6.72;2.40;;;;;;;3.18;91.98;98871.78;5085840;28;20092;-85
2022/01/31 07:48:59;;;;;;;5.20;2.20;;;;;;;3.60;91.67;98863.44;5085922;28;20567;-83
2022/01/31 07:51:24;;;;;;;5.20;1.80;;;;;;;3.45;91.49;98865.84;5066755;28;20565;-83
2022/01/31 07:53:49;;;;;;;4.30;1.80;;;;;;;3.46;91.24;98860.22;5065554;28;20035;-83
2022/01/31 07:56:17;;;;;;;5.85;2.78;;;;;;;3.62;90.72;98864.00;5065369;28;20032;-84
2022/01/31 07:58:43;;;;;;;7.40;2.35;;;;;;;3.71;90.66;98860.94;5063922;28;20020;-84
2022/01/31 08:01:23;;;;;;;11.60;2.60;;;;;;;3.42;91.13;98855.56;5065890;28;21021;-85
2022/01/31 08:03:48;;;;;;;10.65;2.50;;;;;;;3.74;90.71;98857.78;5064945;28;20021;-85
2022/01/31 08:06:15;;;;;;;7.22;1.85;;;;;;;3.35;91.75;98858.38;5065839;28;20039;-84
2022/01/31 08:08:41;;;;;;;6.18;1.73;;;;;;;3.61;91.69;98859.69;5065255;28;20111;-83
2022/01/31 08:11:07;;;;;;;11.98;4.90;;;;;;;3.65;91.00;98851.13;5064866;28;20025;-84
2022/01/31 08:13:33;;;;;;;20.02;3.63;;;;;;;3.06;93.21;98858.31;5065319;28;20020;-85
2022/01/31 08:18:29;;;;;;;7.97;3.80;;;;;;;3.15;92.85;98857.72;5065184;28;20024;-84
2022/01/31 08:20:54;;;;;;;9.15;4.32;;;;;;;3.34;92.31;98836.00;5078096;28;20024;-83
2022/01/31 08:23:19;;;;;;;10.13;4.18;;;;;;;3.26;92.01;98844.47;5086063;28;20031;-84
2022/01/31 08:25:49;;;;;;;6.60;2.92;;;;;;;3.65;91.29;98829.56;5084755;28;20120;-83
2022/01/31 08:28:16;;;;;;;15.40;2.70;;;;;;;3.77;90.56;98822.22;5054528;28;20047;-83
2022/01/31 08:31:01;;;;;;;8.77;2.80;;;;;;;3.90;90.49;98817.59;5061218;28;20216;-84
2022/01/31 08:33:36;;;;;;;5.03;2.38;;;;;;;3.83;90.49;98812.34;5081094;28;20051;-84
2022/01/31 08:36:06;;;;;;;9.20;3.47;;;;;;;3.57;89.63;98807.31;5081241;28;20028;-84
2022/01/31 08:38:33;;;;;;;10.82;3.25;;;;;;;3.35;91.50;98802.63;5083649;28;20016;-83
2022/01/31 08:40:59;;;;;;;19.45;4.07;;;;;;;3.73;91.00;98807.59;5086448;28;20816;-83
2022/01/31 08:43:25;;;;;;;8.82;5.40;;;;;;;3.54;90.84;98801.59;5089162;28;20102;-83
2022/01/31 08:45:51;;;;;;;10.05;3.63;;;;;;;3.56;91.24;98797.59;5091474;28;20024;-84
2022/01/31 08:48:16;;;;;;;9.38;2.92;;;;;;;3.61;90.66;98794.19;5091808;28;20027;-85
2022/01/31 08:50:42;;;;;;;12.57;4.72;;;;;;;3.55;90.70;98784.34;5084449;28;20016;-84
2022/01/31 08:53:08;;;;;;;8.32;4.20;;;;;;;3.78;91.31;98788.00;5088218;28;20050;-84
2022/01/31 08:55:35;;;;;;;10.95;5.25;;;;;;;3.76;90.93;98796.34;5087150;28;20428;-82
2022/01/31 09:00:49;;;;;;;9.88;3.08;;;;;;;3.61;91.20;98797.69;5084378;28;20063;-84
2022/01/31 09:05:40;;;;;;;10.57;3.30;;;;;;;3.44;92.31;98788.75;5093498;28;20059;-84
2022/01/31 09:08:06;;;;;;;8.57;3.70;;;;;;;3.50;92.69;98794.00;5092374;28;20115;-85
2022/01/31 09:10:31;;;;;;;9.95;3.40;;;;;;;3.49;92.61;98791.53;5088576;28;20771;-85
2022/01/31 09:12:56;;;;;;;17.02;4.80;;;;;;;3.21;93.92;98785.09;5089865;28;20024;-87
2022/01/31 09:15:22;;;;;;;13.10;3.83;;;;;;;3.21;94.29;98775.16;5086057;28;20020;-81
2022/01/31 09:17:48;;;;;;;9.05;4.93;;;;;;;3.47;93.59;98772.09;5078652;28;20054;-80
2022/01/31 09:20:13;;;;;;;34.50;3.97;;;;;;;3.88;92.26;98766.59;5088394;28;20040;-79
2022/01/31 09:22:39;;;;;;;6.95;3.30;;;;;;;3.86;90.99;98766.03;5088272;28;20122;-79
2022/01/31 09:25:05;;;;;;;7.85;3.30;;;;;;;3.58;91.83;98757.72;5087176;28;20048;-81
2022/01/31 09:27:30;;;;;;;9.40;3.30;;;;;;;3.52;92.95;98757.91;5062153;28;20024;-79
2022/01/31 09:29:56;;;;;;;9.40;4.30;;;;;;;3.38;93.94;98745.53;5086582;28;20086;-79
2022/01/31 09:32:24;;;;;;;9.60;3.95;;;;;;;3.30;93.72;98751.31;5064091;28;20032;-80
2022/01/31 09:34:50;;;;;;;9.40;3.53;;;;;;;3.17;94.35;98760.53;5086151;28;20044;-80
2022/01/31 09:40:04;;;;;;;12.85;4.63;;;;;;;3.40;93.85;98739.91;5075811;28;20529;-81
2022/01/31 09:42:58;;;;;;;9.10;3.50;;;;;;;3.52;93.54;98744.44;5087447;28;20058;-81
2022/01/31 09:45:36;;;;;;;10.82;3.72;;;;;;;3.47;92.82;98745.97;5081522;28;20073;-81
2022/01/31 09:53:52;;;;;;;11.45;3.95;;;;;;;3.54;93.14;98756.59;5080357;28;20039;-80
2022/01/31 09:56:26;;;;;;;14.77;3.28;;;;;;;3.71;92.32;98755.78;5089541;28;20028;-80
2022/01/31 09:58:53;;;;;;;11.68;4.50;;;;;;;3.38;94.08;98748.22;5087661;28;20182;-80
2022/01/31 10:01:29;;;;;;;11.27;4.13;;;;;;;3.39;94.65;98757.13;5087346;28;20036;-80
2022/01/31 10:04:02;;;;;;;8.02;3.55;;;;;;;3.66;94.10;98748.41;5086854;28;20028;-81
2022/01/31 10:06:33;;;;;;;13.30;4.18;;;;;;;3.65;92.92;98752.19;5087614;28;20028;-81
2022/01/31 10:09:06;;;;;;;12.32;4.43;;;;;;;3.52;94.70;98774.88;5086634;28;20059;-79
2022/01/31 10:11:44;;;;;;;11.98;5.10;;;;;;;3.85;93.25;98767.91;5068482;28;20483;-81
2022/01/31 10:17:27;;;;;;;11.25;4.32;;;;;;;3.96;92.81;98770.75;5085353;28;20162;-82
2022/01/31 10:19:55;;;;;;;10.53;3.30;;;;;;;4.19;90.78;98777.06;5081886;28;20853;-82
2022/01/31 10:22:23;;;;;;;7.93;3.25;;;;;;;3.64;93.60;98792.88;5069555;28;20094;-81
2022/01/31 10:24:51;;;;;;;15.02;3.00;;;;;;;3.56;93.75;98792.19;5066886;28;20039;-81
2022/01/31 10:27:28;;;;;;;13.93;4.20;;;;;;;3.91;93.25;98803.84;5066675;28;20035;-79
2022/01/31 10:30:05;;;;;;;12.40;3.95;;;;;;;4.11;91.23;98790.97;5063735;28;20063;-80
2022/01/31 10:32:35;;;;;;;9.70;3.75;;;;;;;3.85;92.46;98826.41;5051835;28;20376;-81
2022/01/31 10:35:04;;;;;;;9.27;4.25;;;;;;;4.03;91.96;98814.56;5047598;28;20028;-81
2022/01/31 10:37:31;;;;;;;7.72;3.55;;;;;;;4.18;90.79;98797.00;5066318;28;20115;-81
2022/01/31 10:45:42;;;;;;;8.30;3.33;;;;;;;4.27;90.50;98817.09;5068918;28;20048;-80
2022/01/31 10:53:53;;;;;;;5.07;1.88;;;;;;;4.71;88.66;98826.38;5068570;28;20036;-81
2022/01/31 10:56:19;;;;;;;5.57;1.67;;;;;;;4.42;89.62;98838.13;5065384;28;20037;-84
2022/01/31 10:59:06;;;;;;;7.25;2.63;;;;;;;4.25;90.15;98837.31;5066621;28;20363;-81
2022/01/31 11:01:32;;;;;;;6.50;1.30;;;;;;;4.16;90.53;98820.69;5065771;28;20115;-81
2022/01/31 11:04:03;;;;;;;13.07;3.05;;;;;;;4.52;89.57;98848.25;5064794;28;20021;-81
2022/01/31 11:06:29;;;;;;;6.13;2.15;;;;;;;4.08;91.00;98824.63;5065225;28;20140;-82
2022/01/31 11:09:01;;;;;;;5.20;2.28;;;;;;;3.78;92.63;98847.31;5065246;28;20217;-82
2022/01/31 11:11:26;;;;;;;9.02;2.10;;;;;;;3.98;93.16;98846.84;5063915;28;20033;-82
2022/01/31 11:13:54;;;;;;;7.37;2.10;;;;;;;4.04;92.60;98858.53;5064433;28;20047;-82
2022/01/31 11:16:20;;;;;;;7.80;1.60;;;;;;;4.40;92.04;98859.13;5047647;28;20253;-82
2022/01/31 11:18:47;;;;;;;4.80;1.80;;;;;;;4.40;90.89;98869.09;5065278;28;20028;-83
2022/01/31 11:21:13;;;;;;;4.78;1.98;;;;;;;4.22;92.50;98881.78;5065038;28;20060;-81
2022/01/31 11:23:42;;;;;;;8.05;2.75;;;;;;;4.48;90.40;98884.88;5066348;28;20055;-84
2022/01/31 11:26:10;;;;;;;8.68;2.63;;;;;;;4.61;89.50;98896.44;5074990;28;20017;-83
2022/01/31 11:28:40;;;;;;;10.77;3.80;;;;;;;4.47;90.23;98894.06;5064163;28;20119;-81
2022/01/31 11:31:05;;;;;;;6.32;1.92;;;;;;;4.59;89.82;98895.84;5060592;28;20040;-81
2022/01/31 11:33:32;;;;;;;6.65;2.58;;;;;;;4.66;90.04;98888.38;5064651;28;20467;-81
2022/01/31 11:35:58;;;;;;;11.23;2.17;;;;;;;4.82;89.53;98902.94;5079340;28;20024;-81
2022/01/31 11:38:23;;;;;;;6.57;2.08;;;;;;;4.64;90.03;98912.13;5084085;28;20020;-82
2022/01/31 11:40:50;;;;;;;6.28;2.08;;;;;;;4.90;89.14;98909.84;5060851;28;20467;-81
2022/01/31 11:43:18;;;;;;;7.82;1.80;;;;;;;4.94;89.21;98921.78;5084080;28;20474;-82
2022/01/31 11:45:45;;;;;;;7.53;2.00;;;;;;;4.78;89.25;98923.41;5086386;28;20028;-80
2022/01/31 11:48:19;;;;;;;7.07;1.92;;;;;;;4.76;88.56;98931.75;5067153;28;20027;-82
2022/01/31 11:50:47;;;;;;;5.43;2.17;;;;;;;4.83;88.40;98941.56;5054453;28;20048;-79
2022/01/31 11:53:14;;;;;;;11.07;2.88;;;;;;;4.98;88.29;98938.31;5064946;28;20522;-81
2022/01/31 11:58:24;;;;;;;5.50;1.30;;;;;;;4.70;89.51;98965.16;5061994;28;20055;-81
2022/01/31 12:00:51;;;;;;;7.63;2.75;;;;;;;4.69;89.31;98960.81;5064602;28;20535;-81
2022/01/31 12:03:18;;;;;;;4.68;1.30;;;;;;;4.71;89.76;98966.81;5065181;28;20021;-82
2022/01/31 12:05:44;;;;;;;9.18;1.48;;;;;;;4.73;89.82;98961.97;5046769;28;20029;-81
2022/01/31 12:08:15;;;;;;;4.75;1.83;;;;;;;4.70;89.34;98965.16;5064585;28;20024;-82
2022/01/31 12:10:47;;;;;;;6.70;1.15;;;;;;;5.06;88.58;98967.59;5065126;28;20095;-81
2022/01/31 12:13:34;;;;;;;9.73;2.92;;;;;;;4.90;88.69;98961.16;5064351;28;20024;-81
2022/01/31 12:16:08;;;;;;;7.32;2.05;;;;;;;4.89;89.58;98963.03;5064047;28;20483;-81
2022/01/31 12:18:51;;;;;;;9.43;2.58;;;;;;;4.69;90.46;98966.22;5064941;28;20028;-82
2022/01/31 12:24:27;;;;;;;7.05;3.28;;;;;;;4.58;92.56;98976.03;5065322;28;20035;-80